createdAt,value
2023-01-12T00:00:17.829Z,19.45
2023-01-12T00:05:39.579Z,19.42
2023-01-12T00:11:02.270Z,19.38
2023-01-12T00:16:41.009Z,19.35
2023-01-12T00:22:08.974Z,19.31
2023-01-12T00:27:30.705Z,19.29
2023-01-12T00:32:52.415Z,19.25
2023-01-12T00:38:14.307Z,19.24
2023-01-12T00:43:54.876Z,19.22
2023-01-12T00:49:16.839Z,19.21
2023-01-12T00:54:39.078Z,19.18
2023-01-12T01:00:00.950Z,19.17
2023-01-12T01:05:22.946Z,19.14
2023-01-12T01:10:45.774Z,19.12
2023-01-12T01:16:08.771Z,19.11
2023-01-12T01:21:30.651Z,19.09
2023-01-12T01:26:52.492Z,19.07
2023-01-12T01:32:14.256Z,19.06
2023-01-12T01:37:35.947Z,19.05
2023-01-12T01:42:57.936Z,19.03
2023-01-12T01:48:19.665Z,19.01
2023-01-12T01:53:44.077Z,18.99
2023-01-12T01:59:12.799Z,18.99
2023-01-12T02:04:35.662Z,18.95
2023-01-12T02:09:57.395Z,18.96
2023-01-12T02:15:37.819Z,18.93
2023-01-12T02:21:17.577Z,18.94
2023-01-12T02:27:00.984Z,18.90
2023-01-12T02:32:37.693Z,18.88
2023-01-12T02:38:14.385Z,18.87
2023-01-12T02:43:38.354Z,18.83
2023-01-12T02:49:08.246Z,18.83
2023-01-12T02:54:33.224Z,18.82
2023-01-12T02:59:56.690Z,18.81
2023-01-12T03:05:18.580Z,18.80
2023-01-12T03:10:51.176Z,18.80
2023-01-12T03:16:15.786Z,18.77
2023-01-12T03:21:47.521Z,18.77
2023-01-12T03:27:22.058Z,18.76
2023-01-12T03:32:44.107Z,18.75
2023-01-12T03:38:33.836Z,18.75
2023-01-12T03:44:02.176Z,18.72
2023-01-12T03:49:32.683Z,18.71
2023-01-12T03:54:58.033Z,18.69
2023-01-12T04:00:21.658Z,18.69
2023-01-12T04:05:45.039Z,18.66
2023-01-12T04:11:26.689Z,18.59
2023-01-12T04:16:48.415Z,18.57
2023-01-12T04:22:33.999Z,18.54
2023-01-12T04:28:04.669Z,18.51
2023-01-12T04:33:26.378Z,18.52
2023-01-12T04:38:48.142Z,18.50
2023-01-12T04:44:09.944Z,18.48
2023-01-12T04:49:31.595Z,18.46
2023-01-12T04:54:53.995Z,18.47
2023-01-12T05:00:17.307Z,18.44
2023-01-12T05:05:39.054Z,18.45
2023-01-12T05:11:01.528Z,18.43
2023-01-12T05:16:23.620Z,18.39
2023-01-12T05:21:45.370Z,18.40
2023-01-12T05:27:07.125Z,18.38
2023-01-12T05:32:28.911Z,18.38
2023-01-12T05:37:50.623Z,18.37
2023-01-12T05:43:33.893Z,18.35
2023-01-12T05:48:57.022Z,18.34
2023-01-12T05:54:18.923Z,18.34
2023-01-12T05:59:40.697Z,18.33
2023-01-12T06:05:02.443Z,18.33
2023-01-12T06:10:24.200Z,18.35
2023-01-12T06:15:45.945Z,18.38
2023-01-12T06:21:09.408Z,18.42
2023-01-12T06:26:31.308Z,18.44
2023-01-12T06:31:53.088Z,18.43
2023-01-12T06:37:15.757Z,18.43
2023-01-12T06:42:42.204Z,18.44
2023-01-12T06:48:04.396Z,18.47
2023-01-12T06:53:26.203Z,18.48
2023-01-12T06:58:48.205Z,18.47
2023-01-12T07:04:10.012Z,18.48
2023-01-12T07:09:31.740Z,18.47
2023-01-12T07:14:53.455Z,18.46
2023-01-12T07:20:15.361Z,18.44
2023-01-12T07:25:37.080Z,18.45
2023-01-12T07:31:03.244Z,18.44
2023-01-12T07:36:26.135Z,18.42
2023-01-12T07:42:06.205Z,18.40
2023-01-12T07:47:28.210Z,18.37
2023-01-12T07:52:50.068Z,18.37
2023-01-12T07:58:11.999Z,18.34
2023-01-12T08:03:33.784Z,18.33
2023-01-12T08:08:55.891Z,18.31
2023-01-12T08:14:28.469Z,18.33
2023-01-12T08:20:00.264Z,18.32
2023-01-12T08:25:32.289Z,18.30
2023-01-12T08:30:54.370Z,18.28
2023-01-12T08:36:17.002Z,18.28
2023-01-12T08:41:40.681Z,18.25
2023-01-12T08:47:04.130Z,18.27
2023-01-12T08:52:29.553Z,18.24
2023-01-12T08:57:51.290Z,18.24
2023-01-12T09:03:13.023Z,18.22
2023-01-12T09:08:35.102Z,18.22
2023-01-12T09:13:58.922Z,18.22
2023-01-12T09:19:20.767Z,18.20
2023-01-12T09:24:42.504Z,18.19
2023-01-12T09:30:06.706Z,18.19
2023-01-12T09:35:28.441Z,18.18
2023-01-12T09:40:50.191Z,18.17
2023-01-12T09:46:55.602Z,18.18
2023-01-12T09:52:17.428Z,18.17
2023-01-12T09:57:42.050Z,18.14
2023-01-12T10:03:03.764Z,18.14
2023-01-12T10:08:48.676Z,18.15
2023-01-12T10:14:38.214Z,18.16
2023-01-12T10:20:08.877Z,18.14
2023-01-12T10:25:45.571Z,18.14
2023-01-12T10:31:15.182Z,18.14
2023-01-12T10:36:49.835Z,18.13
2023-01-12T10:42:43.819Z,18.12
2023-01-12T10:48:19.344Z,18.11
2023-01-12T10:54:10.062Z,18.10
2023-01-12T10:59:38.552Z,18.10
2023-01-12T11:05:00.265Z,18.08
2023-01-12T11:10:28.035Z,18.08
2023-01-12T11:16:17.108Z,18.09
2023-01-12T11:21:43.468Z,18.06
2023-01-12T11:27:15.994Z,18.06
2023-01-12T11:32:46.553Z,18.05
2023-01-12T11:38:17.239Z,18.05
2023-01-12T11:44:03.182Z,18.03
2023-01-12T11:49:37.464Z,18.02
2023-01-12T11:54:59.351Z,18.02
2023-01-12T12:00:23.896Z,18.02
2023-01-12T12:06:04.167Z,18.01
2023-01-12T12:11:39.353Z,18.00
2023-01-12T12:17:11.337Z,17.96
2023-01-12T12:23:15.792Z,17.97
2023-01-12T12:29:08.972Z,17.96
2023-01-12T12:34:55.122Z,17.96
2023-01-12T12:40:30.114Z,17.95
2023-01-12T12:46:25.487Z,17.97
2023-01-12T12:51:47.456Z,17.93
2023-01-12T12:57:09.586Z,17.94
2023-01-12T13:02:38.221Z,17.96
2023-01-12T13:08:00.734Z,17.94
2023-01-12T13:13:24.304Z,17.95
2023-01-12T13:18:48.796Z,17.95
2023-01-12T13:24:10.508Z,17.95
2023-01-12T13:29:38.525Z,17.94
2023-01-12T13:35:00.345Z,17.92
2023-01-12T13:40:28.522Z,17.94
2023-01-12T13:46:00.754Z,17.94
2023-01-12T13:51:47.964Z,17.92
2023-01-12T13:57:20.523Z,17.91
2023-01-12T14:02:42.449Z,17.89
2023-01-12T14:08:19.436Z,17.90
2023-01-12T14:13:51.131Z,17.90
2023-01-12T14:19:27.075Z,17.89
2023-01-12T14:24:48.808Z,17.86
2023-01-12T14:30:13.445Z,17.86
2023-01-12T14:35:35.195Z,17.86
2023-01-12T14:41:02.818Z,17.88
2023-01-12T14:46:30.440Z,17.85
2023-01-12T14:51:56.335Z,17.84
2023-01-12T14:57:20.773Z,17.84
2023-01-12T15:02:42.781Z,17.84
2023-01-12T15:08:07.277Z,17.85
2023-01-12T15:13:30.707Z,17.83
2023-01-12T15:19:11.244Z,17.82
2023-01-12T15:24:54.448Z,17.81
2023-01-12T15:30:16.887Z,17.80
2023-01-12T15:35:44.238Z,17.80
2023-01-12T15:41:06.467Z,17.78
2023-01-12T15:46:28.195Z,17.78
2023-01-12T15:51:51.201Z,17.78
2023-01-12T15:57:15.225Z,17.78
2023-01-12T16:02:37.991Z,17.77
2023-01-12T16:07:59.687Z,17.76
2023-01-12T16:13:21.393Z,17.77
2023-01-12T16:18:43.967Z,17.78
2023-01-12T16:24:07.551Z,17.77
2023-01-12T16:29:29.438Z,17.75
2023-01-12T16:34:51.461Z,17.74
2023-01-12T16:40:13.338Z,17.74
2023-01-12T16:45:35.118Z,17.74
2023-01-12T16:50:56.891Z,17.73
2023-01-12T16:56:18.730Z,17.73
2023-01-12T17:01:40.609Z,17.74
2023-01-12T17:07:03.058Z,17.73
2023-01-12T17:12:24.841Z,17.73
2023-01-12T17:17:46.679Z,17.73
2023-01-12T17:23:08.516Z,17.73
2023-01-12T17:28:30.717Z,17.74
2023-01-12T17:33:53.273Z,17.74
2023-01-12T17:39:15.472Z,17.75
2023-01-12T17:44:37.200Z,17.75
2023-01-12T17:49:58.971Z,17.74
2023-01-12T17:55:20.744Z,17.78
2023-01-12T18:00:42.512Z,17.94
2023-01-12T18:06:09.021Z,18.29
2023-01-12T18:11:34.200Z,18.74
2023-01-12T18:16:55.983Z,19.16
2023-01-12T18:22:17.789Z,19.60
2023-01-12T18:27:39.557Z,19.98
2023-01-12T18:33:01.352Z,20.19
2023-01-12T18:38:27.422Z,20.38
2023-01-12T18:43:51.363Z,20.52
2023-01-12T18:49:13.073Z,20.61
2023-01-12T18:54:48.207Z,20.68
2023-01-12T19:00:16.996Z,20.68
2023-01-12T19:05:59.937Z,20.65
2023-01-12T19:11:21.734Z,20.59
2023-01-12T19:17:01.768Z,20.54
2023-01-12T19:22:43.494Z,20.47
2023-01-12T19:28:24.448Z,20.44
2023-01-12T19:33:46.175Z,20.44
2023-01-12T19:39:09.754Z,20.48
2023-01-12T19:44:31.538Z,20.51
2023-01-12T19:49:53.229Z,20.53
2023-01-12T19:55:20.192Z,20.52
2023-01-12T20:00:45.403Z,20.47
2023-01-12T20:06:07.744Z,20.41
2023-01-12T20:11:29.972Z,20.36
2023-01-12T20:16:51.692Z,20.31
2023-01-12T20:22:13.402Z,20.34
2023-01-12T20:27:36.446Z,20.40
2023-01-12T20:32:59.383Z,20.46
2023-01-12T20:38:22.794Z,20.51
2023-01-12T20:43:44.802Z,20.55
2023-01-12T20:49:06.612Z,20.56
2023-01-12T20:54:28.301Z,20.59
2023-01-12T20:59:50.455Z,20.65
2023-01-12T21:05:12.144Z,20.68
2023-01-12T21:10:33.817Z,20.71
2023-01-12T21:16:02.918Z,20.71
2023-01-12T21:21:24.648Z,20.67
2023-01-12T21:26:46.711Z,20.62
2023-01-12T21:32:08.494Z,20.55
2023-01-12T21:37:30.988Z,20.48
2023-01-12T21:43:11.992Z,20.41
2023-01-12T21:48:33.827Z,20.32
2023-01-12T21:53:56.832Z,20.26
2023-01-12T21:59:18.866Z,20.19
2023-01-12T22:04:40.574Z,20.13
2023-01-12T22:10:20.123Z,20.09
2023-01-12T22:15:42.599Z,20.03
2023-01-12T22:21:09.533Z,19.95
2023-01-12T22:26:32.779Z,19.88
2023-01-12T22:31:54.571Z,19.79
2023-01-12T22:37:16.284Z,19.71
2023-01-12T22:42:57.211Z,19.62
2023-01-12T22:48:19.256Z,19.54
2023-01-12T22:53:41.000Z,19.47
2023-01-12T22:59:03.379Z,19.41
2023-01-12T23:04:25.131Z,19.36
2023-01-12T23:09:46.838Z,19.31
2023-01-12T23:15:08.862Z,19.27
2023-01-12T23:20:32.313Z,19.23
2023-01-12T23:25:54.105Z,19.20
2023-01-12T23:31:19.362Z,19.15
2023-01-12T23:36:41.581Z,19.13
2023-01-12T23:42:03.731Z,19.11
2023-01-12T23:47:25.572Z,19.07
2023-01-12T23:52:50.627Z,19.06
2023-01-12T23:58:12.376Z,19.02
